Home > Oh Wilbur . . . > Dogfighting Hummingbirds

Dogfighting Hummingbirds

KCLE 211725Z 27012KT 1/2SM SN BKN009 BKN023 OVC035 M11/M14 A2998 RMK AO2 SNB13 P0000

Can’t wait for summer to watch the back yard airshow again.

KCLE 211853Z 2119/2224 27015G22KT 6SM -SHSN SCT015 OVC035 TEMPO 2120/2123 4SM -SHSN OVC015 FM220100 26012KT P6SM -SHSN OVC035 FM220500 24006KT P6SM SCT035 BKN250 FM221400 23006KT P6SM OVC035 FM221800 23006KT 5SM -SHSN OVC030
Categories: Oh Wilbur . . .
  1. No comments yet.
  1. No trackbacks yet.

%d bloggers like this: